sensor_id;sensor_type;location;lat;lon;timestamp;temperature;humidity
33207;DHT22;19565;46.602;11.534;2022-12-10T00:01:28;4.10;99.90
33207;DHT22;19565;46.602;11.534;2022-12-10T00:03:57;4.10;99.90
33207;DHT22;19565;46.602;11.534;2022-12-10T00:06:28;4.10;99.90
33207;DHT22;19565;46.602;11.534;2022-12-10T00:08:58;4.10;99.90
33207;DHT22;19565;46.602;11.534;2022-12-10T00:11:26;4.10;99.90
33207;DHT22;19565;46.602;11.534;2022-12-10T00:13:55;4.10;99.90
33207;DHT22;19565;46.602;11.534;2022-12-10T00:16:27;4.10;99.90
33207;DHT22;19565;46.602;11.534;2022-12-10T00:18:57;4.10;99.90
33207;DHT22;19565;46.602;11.534;2022-12-10T00:21:27;4.10;99.90
33207;DHT22;19565;46.602;11.534;2022-12-10T00:23:58;4.10;99.90
33207;DHT22;19565;46.602;11.534;2022-12-10T00:26:27;4.10;99.90
33207;DHT22;19565;46.602;11.534;2022-12-10T00:28:56;4.10;99.90
33207;DHT22;19565;46.602;11.534;2022-12-10T00:31:27;4.10;99.90
33207;DHT22;19565;46.602;11.534;2022-12-10T00:33:57;4.10;99.90
33207;DHT22;19565;46.602;11.534;2022-12-10T00:36:28;4.00;99.90
33207;DHT22;19565;46.602;11.534;2022-12-10T00:38:56;3.80;99.90
33207;DHT22;19565;46.602;11.534;2022-12-10T00:41:24;3.80;99.90
33207;DHT22;19565;46.602;11.534;2022-12-10T00:43:52;3.70;99.90
33207;DHT22;19565;46.602;11.534;2022-12-10T00:46:20;3.60;99.90
33207;DHT22;19565;46.602;11.534;2022-12-10T00:48:50;3.50;99.90
33207;DHT22;19565;46.602;11.534;2022-12-10T00:51:20;3.60;99.90
33207;DHT22;19565;46.602;11.534;2022-12-10T00:53:49;3.60;99.90
33207;DHT22;19565;46.602;11.534;2022-12-10T00:56:19;3.50;99.90
33207;DHT22;19565;46.602;11.534;2022-12-10T00:58:48;3.40;99.90
33207;DHT22;19565;46.602;11.534;2022-12-10T01:01:19;3.40;99.90
33207;DHT22;19565;46.602;11.534;2022-12-10T01:03:51;3.50;99.90
33207;DHT22;19565;46.602;11.534;2022-12-10T01:06:26;3.60;99.90
33207;DHT22;19565;46.602;11.534;2022-12-10T01:08:56;3.70;99.90
33207;DHT22;19565;46.602;11.534;2022-12-10T01:11:30;3.80;99.90
33207;DHT22;19565;46.602;11.534;2022-12-10T01:13:59;3.80;99.90
33207;DHT22;19565;46.602;11.534;2022-12-10T01:16:27;3.90;99.90
33207;DHT22;19565;46.602;11.534;2022-12-10T01:18:57;4.00;99.90
33207;DHT22;19565;46.602;11.534;2022-12-10T01:21:27;4.00;99.90
33207;DHT22;19565;46.602;11.534;2022-12-10T01:23:56;4.10;99.90
33207;DHT22;19565;46.602;11.534;2022-12-10T01:26:26;4.10;99.90
33207;DHT22;19565;46.602;11.534;2022-12-10T01:28:55;4.10;99.90
33207;DHT22;19565;46.602;11.534;2022-12-10T01:31:25;4.10;99.90
33207;DHT22;19565;46.602;11.534;2022-12-10T01:33:53;4.10;99.90
33207;DHT22;19565;46.602;11.534;2022-12-10T01:36:25;4.10;99.90
33207;DHT22;19565;46.602;11.534;2022-12-10T01:38:53;4.20;99.90
33207;DHT22;19565;46.602;11.534;2022-12-10T01:41:25;4.20;99.90
33207;DHT22;19565;46.602;11.534;2022-12-10T01:43:56;4.20;99.90
33207;DHT22;19565;46.602;11.534;2022-12-10T01:46:27;4.20;99.90
33207;DHT22;19565;46.602;11.534;2022-12-10T01:48:55;4.20;99.90
33207;DHT22;19565;46.602;11.534;2022-12-10T01:51:30;4.10;99.90
33207;DHT22;19565;46.602;11.534;2022-12-10T01:53:58;4.10;99.90
33207;DHT22;19565;46.602;11.534;2022-12-10T01:56:27;4.10;99.90
33207;DHT22;19565;46.602;11.534;2022-12-10T01:58:56;4.10;99.90
33207;DHT22;19565;46.602;11.534;2022-12-10T02:01:29;4.10;99.90
33207;DHT22;19565;46.602;11.534;2022-12-10T02:04:06;4.10;99.90
33207;DHT22;19565;46.602;11.534;2022-12-10T02:06:45;4.10;99.90
33207;DHT22;19565;46.602;11.534;2022-12-10T02:09:23;4.10;99.90
33207;DHT22;19565;46.602;11.534;2022-12-10T02:12:01;4.10;99.90
33207;DHT22;19565;46.602;11.534;2022-12-10T02:14:35;4.10;99.90
33207;DHT22;19565;46.602;11.534;2022-12-10T02:17:10;4.10;99.90
33207;DHT22;19565;46.602;11.534;2022-12-10T02:19:57;4.10;99.90
33207;DHT22;19565;46.602;11.534;2022-12-10T02:22:40;4.10;99.90
33207;DHT22;19565;46.602;11.534;2022-12-10T02:25:11;4.10;99.90
33207;DHT22;19565;46.602;11.534;2022-12-10T02:27:46;4.00;99.90
33207;DHT22;19565;46.602;11.534;2022-12-10T02:30:17;4.00;99.90
33207;DHT22;19565;46.602;11.534;2022-12-10T02:32:47;4.00;99.90
33207;DHT22;19565;46.602;11.534;2022-12-10T02:35:18;4.00;99.90
33207;DHT22;19565;46.602;11.534;2022-12-10T02:37:50;4.00;99.90
33207;DHT22;19565;46.602;11.534;2022-12-10T02:40:22;4.00;99.90
33207;DHT22;19565;46.602;11.534;2022-12-10T02:42:51;4.00;99.90
33207;DHT22;19565;46.602;11.534;2022-12-10T02:45:23;4.00;99.90
33207;DHT22;19565;46.602;11.534;2022-12-10T02:47:54;4.00;99.90
33207;DHT22;19565;46.602;11.534;2022-12-10T02:50:23;4.00;99.90
33207;DHT22;19565;46.602;11.534;2022-12-10T02:52:51;4.00;99.90
33207;DHT22;19565;46.602;11.534;2022-12-10T02:55:20;4.10;99.90
33207;DHT22;19565;46.602;11.534;2022-12-10T02:58:03;4.10;99.90
33207;DHT22;19565;46.602;11.534;2022-12-10T03:00:42;4.10;99.90
33207;DHT22;19565;46.602;11.534;2022-12-10T03:03:28;4.10;99.90
33207;DHT22;19565;46.602;11.534;2022-12-10T03:06:02;4.00;99.90
33207;DHT22;19565;46.602;11.534;2022-12-10T03:08:37;4.00;99.90
33207;DHT22;19565;46.602;11.534;2022-12-10T03:11:11;4.10;99.90
33207;DHT22;19565;46.602;11.534;2022-12-10T03:13:47;4.10;99.90
33207;DHT22;19565;46.602;11.534;2022-12-10T03:16:20;4.10;99.90
33207;DHT22;19565;46.602;11.534;2022-12-10T03:18:52;4.20;99.90
33207;DHT22;19565;46.602;11.534;2022-12-10T03:21:22;4.20;99.90
33207;DHT22;19565;46.602;11.534;2022-12-10T03:23:51;3.90;99.90
33207;DHT22;19565;46.602;11.534;2022-12-10T03:26:20;3.80;99.90
33207;DHT22;19565;46.602;11.534;2022-12-10T03:28:50;3.70;99.90
33207;DHT22;19565;46.602;11.534;2022-12-10T03:31:21;3.60;99.90
33207;DHT22;19565;46.602;11.534;2022-12-10T03:33:50;3.70;99.90
33207;DHT22;19565;46.602;11.534;2022-12-10T03:36:20;3.60;99.90
33207;DHT22;19565;46.602;11.534;2022-12-10T03:38:49;3.70;99.90
33207;DHT22;19565;46.602;11.534;2022-12-10T03:41:18;3.80;99.90
33207;DHT22;19565;46.602;11.534;2022-12-10T03:43:53;3.90;99.90
33207;DHT22;19565;46.602;11.534;2022-12-10T03:46:24;3.90;99.90
33207;DHT22;19565;46.602;11.534;2022-12-10T03:48:52;3.90;99.90
33207;DHT22;19565;46.602;11.534;2022-12-10T03:51:21;4.00;99.90
33207;DHT22;19565;46.602;11.534;2022-12-10T03:53:50;4.00;99.90
33207;DHT22;19565;46.602;11.534;2022-12-10T03:56:19;4.10;99.90
33207;DHT22;19565;46.602;11.534;2022-12-10T03:58:47;4.10;99.90
33207;DHT22;19565;46.602;11.534;2022-12-10T04:01:16;4.20;99.90
33207;DHT22;19565;46.602;11.534;2022-12-10T04:03:45;4.20;99.90
33207;DHT22;19565;46.602;11.534;2022-12-10T04:06:15;4.20;99.90
33207;DHT22;19565;46.602;11.534;2022-12-10T04:08:44;4.20;99.90
33207;DHT22;19565;46.602;11.534;2022-12-10T04:11:13;4.20;99.90
33207;DHT22;19565;46.602;11.534;2022-12-10T04:13:42;4.20;99.90
33207;DHT22;19565;46.602;11.534;2022-12-10T04:16:29;4.20;99.90
33207;DHT22;19565;46.602;11.534;2022-12-10T04:19:01;4.20;99.90
33207;DHT22;19565;46.602;11.534;2022-12-10T04:21:31;4.30;99.90
33207;DHT22;19565;46.602;11.534;2022-12-10T04:24:33;4.30;99.90
33207;DHT22;19565;46.602;11.534;2022-12-10T04:27:21;4.30;99.90
33207;DHT22;19565;46.602;11.534;2022-12-10T04:29:50;4.20;99.90
33207;DHT22;19565;46.602;11.534;2022-12-10T04:32:19;4.20;99.90
33207;DHT22;19565;46.602;11.534;2022-12-10T04:34:49;4.20;99.90
33207;DHT22;19565;46.602;11.534;2022-12-10T04:37:19;4.20;99.90
33207;DHT22;19565;46.602;11.534;2022-12-10T04:39:49;4.20;99.90
33207;DHT22;19565;46.602;11.534;2022-12-10T04:42:18;4.30;99.90
33207;DHT22;19565;46.602;11.534;2022-12-10T04:44:46;4.20;99.90
33207;DHT22;19565;46.602;11.534;2022-12-10T04:47:14;4.10;99.90
33207;DHT22;19565;46.602;11.534;2022-12-10T04:49:43;4.10;99.90
33207;DHT22;19565;46.602;11.534;2022-12-10T04:52:14;4.20;99.90
33207;DHT22;19565;46.602;11.534;2022-12-10T04:54:43;4.10;99.90
33207;DHT22;19565;46.602;11.534;2022-12-10T04:57:11;4.20;99.90
33207;DHT22;19565;46.602;11.534;2022-12-10T04:59:41;4.20;99.90
33207;DHT22;19565;46.602;11.534;2022-12-10T05:02:09;4.20;99.90
33207;DHT22;19565;46.602;11.534;2022-12-10T05:04:38;4.10;99.90
33207;DHT22;19565;46.602;11.534;2022-12-10T05:07:06;4.10;99.90
33207;DHT22;19565;46.602;11.534;2022-12-10T05:09:35;3.90;99.90
33207;DHT22;19565;46.602;11.534;2022-12-10T05:12:03;3.70;99.90
33207;DHT22;19565;46.602;11.534;2022-12-10T05:14:32;3.90;99.90
33207;DHT22;19565;46.602;11.534;2022-12-10T05:17:00;3.90;99.90
33207;DHT22;19565;46.602;11.534;2022-12-10T05:19:28;3.90;99.90
33207;DHT22;19565;46.602;11.534;2022-12-10T05:21:56;3.90;99.90
33207;DHT22;19565;46.602;11.534;2022-12-10T05:24:43;3.90;99.90
33207;DHT22;19565;46.602;11.534;2022-12-10T05:27:11;3.90;99.90
33207;DHT22;19565;46.602;11.534;2022-12-10T05:29:39;3.90;99.90
33207;DHT22;19565;46.602;11.534;2022-12-10T05:32:07;3.90;99.90
33207;DHT22;19565;46.602;11.534;2022-12-10T05:34:35;3.90;99.90
33207;DHT22;19565;46.602;11.534;2022-12-10T05:37:03;4.00;99.90
33207;DHT22;19565;46.602;11.534;2022-12-10T05:39:31;4.10;99.90
33207;DHT22;19565;46.602;11.534;2022-12-10T05:42:01;4.10;99.90
33207;DHT22;19565;46.602;11.534;2022-12-10T05:44:29;4.10;99.90
33207;DHT22;19565;46.602;11.534;2022-12-10T05:46:57;4.20;99.90
33207;DHT22;19565;46.602;11.534;2022-12-10T05:49:25;4.20;99.90
33207;DHT22;19565;46.602;11.534;2022-12-10T05:51:54;4.20;99.90
33207;DHT22;19565;46.602;11.534;2022-12-10T05:54:23;4.30;99.90
33207;DHT22;19565;46.602;11.534;2022-12-10T05:56:51;4.20;99.90
33207;DHT22;19565;46.602;11.534;2022-12-10T05:59:22;4.30;99.90
33207;DHT22;19565;46.602;11.534;2022-12-10T06:01:50;4.30;99.90
33207;DHT22;19565;46.602;11.534;2022-12-10T06:04:20;4.20;99.90
33207;DHT22;19565;46.602;11.534;2022-12-10T06:06:48;4.30;99.90
33207;DHT22;19565;46.602;11.534;2022-12-10T06:09:16;4.30;99.90
33207;DHT22;19565;46.602;11.534;2022-12-10T06:11:44;4.30;99.90
33207;DHT22;19565;46.602;11.534;2022-12-10T06:14:12;4.20;99.90
33207;DHT22;19565;46.602;11.534;2022-12-10T06:16:42;4.30;99.90
33207;DHT22;19565;46.602;11.534;2022-12-10T06:19:10;4.30;99.90
33207;DHT22;19565;46.602;11.534;2022-12-10T06:21:38;4.30;99.90
33207;DHT22;19565;46.602;11.534;2022-12-10T06:24:07;4.30;99.90
33207;DHT22;19565;46.602;11.534;2022-12-10T06:26:35;4.30;99.90
33207;DHT22;19565;46.602;11.534;2022-12-10T06:29:03;4.30;99.90
33207;DHT22;19565;46.602;11.534;2022-12-10T06:31:32;4.30;99.90
33207;DHT22;19565;46.602;11.534;2022-12-10T06:34:02;4.30;99.90
33207;DHT22;19565;46.602;11.534;2022-12-10T06:36:30;4.20;99.90
33207;DHT22;19565;46.602;11.534;2022-12-10T06:38:58;4.20;99.90
33207;DHT22;19565;46.602;11.534;2022-12-10T06:41:26;4.20;99.90
33207;DHT22;19565;46.602;11.534;2022-12-10T06:43:54;4.20;99.90
33207;DHT22;19565;46.602;11.534;2022-12-10T06:46:26;4.20;99.90
33207;DHT22;19565;46.602;11.534;2022-12-10T06:48:55;4.20;99.90
33207;DHT22;19565;46.602;11.534;2022-12-10T06:51:24;4.20;99.90
33207;DHT22;19565;46.602;11.534;2022-12-10T06:53:53;4.20;99.90
33207;DHT22;19565;46.602;11.534;2022-12-10T06:56:21;4.20;99.90
33207;DHT22;19565;46.602;11.534;2022-12-10T06:58:51;4.20;99.90
33207;DHT22;19565;46.602;11.534;2022-12-10T07:01:21;4.20;99.90
33207;DHT22;19565;46.602;11.534;2022-12-10T07:03:54;4.20;99.90
33207;DHT22;19565;46.602;11.534;2022-12-10T07:06:25;4.20;99.90
33207;DHT22;19565;46.602;11.534;2022-12-10T07:08:54;4.30;99.90
33207;DHT22;19565;46.602;11.534;2022-12-10T07:11:24;4.20;99.90
33207;DHT22;19565;46.602;11.534;2022-12-10T07:13:52;4.30;99.90
33207;DHT22;19565;46.602;11.534;2022-12-10T07:16:22;4.30;99.90
33207;DHT22;19565;46.602;11.534;2022-12-10T07:18:52;4.30;99.90
33207;DHT22;19565;46.602;11.534;2022-12-10T07:21:22;4.30;99.90
33207;DHT22;19565;46.602;11.534;2022-12-10T07:23:52;4.20;99.90
33207;DHT22;19565;46.602;11.534;2022-12-10T07:26:21;4.20;99.90
33207;DHT22;19565;46.602;11.534;2022-12-10T07:28:50;4.20;99.90
33207;DHT22;19565;46.602;11.534;2022-12-10T07:31:20;4.30;99.90
33207;DHT22;19565;46.602;11.534;2022-12-10T07:33:49;4.40;99.90
33207;DHT22;19565;46.602;11.534;2022-12-10T07:36:19;4.40;99.90
33207;DHT22;19565;46.602;11.534;2022-12-10T07:38:49;4.30;99.90
33207;DHT22;19565;46.602;11.534;2022-12-10T07:41:18;4.40;99.90
33207;DHT22;19565;46.602;11.534;2022-12-10T07:43:48;4.40;99.90
33207;DHT22;19565;46.602;11.534;2022-12-10T07:46:21;4.40;99.90
33207;DHT22;19565;46.602;11.534;2022-12-10T07:48:50;4.40;99.90
33207;DHT22;19565;46.602;11.534;2022-12-10T07:51:19;4.40;99.90
33207;DHT22;19565;46.602;11.534;2022-12-10T07:53:51;4.40;99.90
33207;DHT22;19565;46.602;11.534;2022-12-10T07:56:22;4.40;99.90
33207;DHT22;19565;46.602;11.534;2022-12-10T07:58:51;4.40;99.90
33207;DHT22;19565;46.602;11.534;2022-12-10T08:01:22;4.40;99.90
33207;DHT22;19565;46.602;11.534;2022-12-10T08:03:51;4.40;99.90
33207;DHT22;19565;46.602;11.534;2022-12-10T08:06:20;4.50;99.90
33207;DHT22;19565;46.602;11.534;2022-12-10T08:08:49;4.50;99.90
33207;DHT22;19565;46.602;11.534;2022-12-10T08:11:21;4.50;99.90
33207;DHT22;19565;46.602;11.534;2022-12-10T08:13:49;4.50;99.90
33207;DHT22;19565;46.602;11.534;2022-12-10T08:16:24;4.60;99.90
33207;DHT22;19565;46.602;11.534;2022-12-10T08:18:54;4.50;99.90
33207;DHT22;19565;46.602;11.534;2022-12-10T08:21:24;4.60;99.90
33207;DHT22;19565;46.602;11.534;2022-12-10T08:23:53;4.60;99.90
33207;DHT22;19565;46.602;11.534;2022-12-10T08:26:24;4.60;99.90
33207;DHT22;19565;46.602;11.534;2022-12-10T08:28:53;4.60;99.90
33207;DHT22;19565;46.602;11.534;2022-12-10T08:31:25;4.60;99.90
33207;DHT22;19565;46.602;11.534;2022-12-10T08:34:01;4.60;99.90
33207;DHT22;19565;46.602;11.534;2022-12-10T08:36:29;4.60;99.90
33207;DHT22;19565;46.602;11.534;2022-12-10T08:38:58;4.60;99.90
33207;DHT22;19565;46.602;11.534;2022-12-10T08:41:27;4.70;99.90
33207;DHT22;19565;46.602;11.534;2022-12-10T08:43:55;4.60;99.90
33207;DHT22;19565;46.602;11.534;2022-12-10T08:46:24;4.70;99.90
33207;DHT22;19565;46.602;11.534;2022-12-10T08:48:53;4.70;99.90
33207;DHT22;19565;46.602;11.534;2022-12-10T08:51:21;4.70;99.90
33207;DHT22;19565;46.602;11.534;2022-12-10T08:53:49;4.70;99.90
33207;DHT22;19565;46.602;11.534;2022-12-10T08:56:17;4.60;99.90
33207;DHT22;19565;46.602;11.534;2022-12-10T08:58:47;4.60;99.90
33207;DHT22;19565;46.602;11.534;2022-12-10T09:01:17;4.60;99.90
33207;DHT22;19565;46.602;11.534;2022-12-10T09:03:46;4.60;99.90
33207;DHT22;19565;46.602;11.534;2022-12-10T09:06:16;4.60;99.90
33207;DHT22;19565;46.602;11.534;2022-12-10T09:08:45;4.50;99.90
33207;DHT22;19565;46.602;11.534;2022-12-10T09:11:16;4.60;99.90
33207;DHT22;19565;46.602;11.534;2022-12-10T09:13:46;4.60;99.90
33207;DHT22;19565;46.602;11.534;2022-12-10T09:16:15;4.60;99.90
33207;DHT22;19565;46.602;11.534;2022-12-10T09:18:43;4.70;99.90
33207;DHT22;19565;46.602;11.534;2022-12-10T09:21:14;4.60;99.90
33207;DHT22;19565;46.602;11.534;2022-12-10T09:23:43;4.70;99.90
33207;DHT22;19565;46.602;11.534;2022-12-10T09:26:13;4.70;99.90
33207;DHT22;19565;46.602;11.534;2022-12-10T09:28:42;4.70;99.90
33207;DHT22;19565;46.602;11.534;2022-12-10T09:31:13;4.60;99.90
33207;DHT22;19565;46.602;11.534;2022-12-10T09:33:47;4.40;99.90
33207;DHT22;19565;46.602;11.534;2022-12-10T09:36:15;4.40;99.90
33207;DHT22;19565;46.602;11.534;2022-12-10T09:38:44;4.40;99.90
33207;DHT22;19565;46.602;11.534;2022-12-10T09:41:37;4.30;99.90
33207;DHT22;19565;46.602;11.534;2022-12-10T09:44:15;4.40;99.90
33207;DHT22;19565;46.602;11.534;2022-12-10T09:46:52;4.40;99.90
33207;DHT22;19565;46.602;11.534;2022-12-10T09:49:30;4.40;99.90
33207;DHT22;19565;46.602;11.534;2022-12-10T09:52:02;4.40;99.90
33207;DHT22;19565;46.602;11.534;2022-12-10T09:54:33;4.50;99.90
33207;DHT22;19565;46.602;11.534;2022-12-10T09:57:04;4.50;99.90
33207;DHT22;19565;46.602;11.534;2022-12-10T09:59:37;4.60;99.90
33207;DHT22;19565;46.602;11.534;2022-12-10T10:02:22;4.50;99.90
33207;DHT22;19565;46.602;11.534;2022-12-10T10:05:06;4.50;99.90
33207;DHT22;19565;46.602;11.534;2022-12-10T10:07:39;4.60;99.90
33207;DHT22;19565;46.602;11.534;2022-12-10T10:10:19;4.70;99.90
33207;DHT22;19565;46.602;11.534;2022-12-10T10:12:51;4.70;99.90
33207;DHT22;19565;46.602;11.534;2022-12-10T10:15:25;4.70;99.90
33207;DHT22;19565;46.602;11.534;2022-12-10T10:17:58;4.60;99.90
33207;DHT22;19565;46.602;11.534;2022-12-10T10:20:26;4.60;99.90
33207;DHT22;19565;46.602;11.534;2022-12-10T10:22:56;4.60;99.90
33207;DHT22;19565;46.602;11.534;2022-12-10T10:25:25;4.50;99.90
33207;DHT22;19565;46.602;11.534;2022-12-10T10:27:54;4.60;99.90
33207;DHT22;19565;46.602;11.534;2022-12-10T10:30:23;4.60;99.90
33207;DHT22;19565;46.602;11.534;2022-12-10T10:32:55;4.50;99.90
33207;DHT22;19565;46.602;11.534;2022-12-10T10:35:29;4.60;99.90
33207;DHT22;19565;46.602;11.534;2022-12-10T10:38:00;4.70;99.90
33207;DHT22;19565;46.602;11.534;2022-12-10T10:40:32;4.80;99.90
33207;DHT22;19565;46.602;11.534;2022-12-10T10:43:03;4.90;99.90
33207;DHT22;19565;46.602;11.534;2022-12-10T10:45:39;5.00;99.90
33207;DHT22;19565;46.602;11.534;2022-12-10T10:48:14;5.00;99.90
33207;DHT22;19565;46.602;11.534;2022-12-10T10:50:45;5.10;99.90
33207;DHT22;19565;46.602;11.534;2022-12-10T10:53:25;5.10;99.90
33207;DHT22;19565;46.602;11.534;2022-12-10T10:55:56;5.20;99.90
33207;DHT22;19565;46.602;11.534;2022-12-10T10:58:25;5.20;99.90
33207;DHT22;19565;46.602;11.534;2022-12-10T11:00:57;5.20;99.90
33207;DHT22;19565;46.602;11.534;2022-12-10T11:03:28;5.20;99.90
33207;DHT22;19565;46.602;11.534;2022-12-10T11:05:57;5.20;99.90
33207;DHT22;19565;46.602;11.534;2022-12-10T11:08:29;5.20;99.90
33207;DHT22;19565;46.602;11.534;2022-12-10T11:11:01;5.30;99.90
33207;DHT22;19565;46.602;11.534;2022-12-10T11:13:32;5.30;99.90
33207;DHT22;19565;46.602;11.534;2022-12-10T11:16:10;5.40;99.90
33207;DHT22;19565;46.602;11.534;2022-12-10T11:18:41;5.40;99.90
33207;DHT22;19565;46.602;11.534;2022-12-10T11:21:18;5.40;99.90
33207;DHT22;19565;46.602;11.534;2022-12-10T11:23:51;5.50;99.90
33207;DHT22;19565;46.602;11.534;2022-12-10T11:26:44;5.40;99.90
33207;DHT22;19565;46.602;11.534;2022-12-10T11:29:26;5.50;99.90
33207;DHT22;19565;46.602;11.534;2022-12-10T11:32:10;5.50;99.90
33207;DHT22;19565;46.602;11.534;2022-12-10T11:34:53;5.50;99.90
33207;DHT22;19565;46.602;11.534;2022-12-10T11:37:29;5.50;99.90
33207;DHT22;19565;46.602;11.534;2022-12-10T11:40:26;5.50;99.90
33207;DHT22;19565;46.602;11.534;2022-12-10T11:43:07;5.50;99.90
33207;DHT22;19565;46.602;11.534;2022-12-10T11:45:47;5.50;99.90
33207;DHT22;19565;46.602;11.534;2022-12-10T11:48:31;5.40;99.90
33207;DHT22;19565;46.602;11.534;2022-12-10T11:51:15;5.50;99.90
33207;DHT22;19565;46.602;11.534;2022-12-10T11:53:54;5.50;99.90
33207;DHT22;19565;46.602;11.534;2022-12-10T11:56:26;5.50;99.90
33207;DHT22;19565;46.602;11.534;2022-12-10T11:59:03;5.50;99.90
33207;DHT22;19565;46.602;11.534;2022-12-10T12:01:43;5.40;99.90
33207;DHT22;19565;46.602;11.534;2022-12-10T12:04:24;5.30;99.90
33207;DHT22;19565;46.602;11.534;2022-12-10T12:07:05;5.30;99.90
33207;DHT22;19565;46.602;11.534;2022-12-10T12:09:45;5.20;99.90
33207;DHT22;19565;46.602;11.534;2022-12-10T12:12:24;5.20;99.90
33207;DHT22;19565;46.602;11.534;2022-12-10T12:14:57;5.20;99.90
33207;DHT22;19565;46.602;11.534;2022-12-10T12:17:27;5.20;99.90
33207;DHT22;19565;46.602;11.534;2022-12-10T12:20:02;5.20;99.90
33207;DHT22;19565;46.602;11.534;2022-12-10T12:22:34;5.30;99.90
33207;DHT22;19565;46.602;11.534;2022-12-10T12:25:08;5.20;99.90
33207;DHT22;19565;46.602;11.534;2022-12-10T12:27:41;5.30;99.90
33207;DHT22;19565;46.602;11.534;2022-12-10T12:30:14;5.40;99.90
33207;DHT22;19565;46.602;11.534;2022-12-10T12:32:54;5.40;99.90
33207;DHT22;19565;46.602;11.534;2022-12-10T12:35:32;5.40;99.90
33207;DHT22;19565;46.602;11.534;2022-12-10T12:38:13;5.40;99.90
33207;DHT22;19565;46.602;11.534;2022-12-10T12:40:50;5.40;99.90
33207;DHT22;19565;46.602;11.534;2022-12-10T12:43:21;5.30;99.90
33207;DHT22;19565;46.602;11.534;2022-12-10T12:45:53;5.30;99.90
33207;DHT22;19565;46.602;11.534;2022-12-10T12:48:26;5.30;99.90
33207;DHT22;19565;46.602;11.534;2022-12-10T12:51:00;5.20;99.90
33207;DHT22;19565;46.602;11.534;2022-12-10T12:53:31;5.20;99.90
33207;DHT22;19565;46.602;11.534;2022-12-10T12:56:04;5.10;99.90
33207;DHT22;19565;46.602;11.534;2022-12-10T12:58:39;5.10;99.90
33207;DHT22;19565;46.602;11.534;2022-12-10T13:01:16;5.10;99.90
33207;DHT22;19565;46.602;11.534;2022-12-10T13:03:48;5.10;99.90
33207;DHT22;19565;46.602;11.534;2022-12-10T13:06:21;5.10;99.90
33207;DHT22;19565;46.602;11.534;2022-12-10T13:08:53;5.10;99.90
33207;DHT22;19565;46.602;11.534;2022-12-10T13:11:31;5.20;99.90
33207;DHT22;19565;46.602;11.534;2022-12-10T13:14:28;5.20;99.90
33207;DHT22;19565;46.602;11.534;2022-12-10T13:17:08;5.20;99.90
33207;DHT22;19565;46.602;11.534;2022-12-10T13:19:36;5.20;99.90
33207;DHT22;19565;46.602;11.534;2022-12-10T13:22:08;5.20;99.90
33207;DHT22;19565;46.602;11.534;2022-12-10T13:27:31;5.20;99.90
33207;DHT22;19565;46.602;11.534;2022-12-10T13:30:04;5.20;99.90
33207;DHT22;19565;46.602;11.534;2022-12-10T13:32:44;5.20;99.90
33207;DHT22;19565;46.602;11.534;2022-12-10T13:35:31;5.20;99.90
33207;DHT22;19565;46.602;11.534;2022-12-10T13:38:19;5.20;99.90
33207;DHT22;19565;46.602;11.534;2022-12-10T13:40:58;5.20;99.90
33207;DHT22;19565;46.602;11.534;2022-12-10T13:43:52;5.20;99.90
33207;DHT22;19565;46.602;11.534;2022-12-10T13:46:50;5.30;99.90
33207;DHT22;19565;46.602;11.534;2022-12-10T13:49:20;5.30;99.90
33207;DHT22;19565;46.602;11.534;2022-12-10T13:51:54;5.40;99.90
33207;DHT22;19565;46.602;11.534;2022-12-10T13:54:45;5.30;99.90
33207;DHT22;19565;46.602;11.534;2022-12-10T13:57:30;5.30;99.90
33207;DHT22;19565;46.602;11.534;2022-12-10T14:00:08;5.30;99.90
33207;DHT22;19565;46.602;11.534;2022-12-10T14:02:52;5.30;99.90
33207;DHT22;19565;46.602;11.534;2022-12-10T14:05:33;5.30;99.90
33207;DHT22;19565;46.602;11.534;2022-12-10T14:08:12;5.30;99.90
33207;DHT22;19565;46.602;11.534;2022-12-10T14:10:42;5.30;99.90
33207;DHT22;19565;46.602;11.534;2022-12-10T14:13:15;5.30;99.90
33207;DHT22;19565;46.602;11.534;2022-12-10T14:15:50;5.30;99.90
33207;DHT22;19565;46.602;11.534;2022-12-10T14:18:20;5.40;99.90
33207;DHT22;19565;46.602;11.534;2022-12-10T14:20:52;5.30;99.90
33207;DHT22;19565;46.602;11.534;2022-12-10T14:23:24;5.30;99.90
33207;DHT22;19565;46.602;11.534;2022-12-10T14:26:11;5.30;99.90
33207;DHT22;19565;46.602;11.534;2022-12-10T14:28:43;5.30;99.90
33207;DHT22;19565;46.602;11.534;2022-12-10T14:31:17;5.30;99.90
33207;DHT22;19565;46.602;11.534;2022-12-10T14:33:48;5.30;99.90
33207;DHT22;19565;46.602;11.534;2022-12-10T14:36:24;5.30;99.90
33207;DHT22;19565;46.602;11.534;2022-12-10T14:38:54;5.30;99.90
33207;DHT22;19565;46.602;11.534;2022-12-10T14:41:23;5.40;99.90
33207;DHT22;19565;46.602;11.534;2022-12-10T14:43:53;5.40;99.90
33207;DHT22;19565;46.602;11.534;2022-12-10T14:46:25;5.50;99.90
33207;DHT22;19565;46.602;11.534;2022-12-10T14:48:55;5.50;99.90
33207;DHT22;19565;46.602;11.534;2022-12-10T14:51:25;5.40;99.90
33207;DHT22;19565;46.602;11.534;2022-12-10T14:53:54;5.40;99.90
33207;DHT22;19565;46.602;11.534;2022-12-10T14:56:25;5.40;99.90
33207;DHT22;19565;46.602;11.534;2022-12-10T14:59:02;5.50;99.90
33207;DHT22;19565;46.602;11.534;2022-12-10T15:01:33;5.40;99.90
33207;DHT22;19565;46.602;11.534;2022-12-10T15:04:05;5.40;99.90
33207;DHT22;19565;46.602;11.534;2022-12-10T15:06:35;5.40;99.90
33207;DHT22;19565;46.602;11.534;2022-12-10T15:09:06;5.40;99.90
33207;DHT22;19565;46.602;11.534;2022-12-10T15:11:37;5.40;99.90
33207;DHT22;19565;46.602;11.534;2022-12-10T15:14:10;5.40;99.90
33207;DHT22;19565;46.602;11.534;2022-12-10T15:16:45;5.40;99.90
33207;DHT22;19565;46.602;11.534;2022-12-10T15:19:19;5.30;99.90
33207;DHT22;19565;46.602;11.534;2022-12-10T15:21:49;5.40;99.90
33207;DHT22;19565;46.602;11.534;2022-12-10T15:24:20;5.40;99.90
33207;DHT22;19565;46.602;11.534;2022-12-10T15:26:50;5.40;99.90
33207;DHT22;19565;46.602;11.534;2022-12-10T15:29:34;5.30;99.90
33207;DHT22;19565;46.602;11.534;2022-12-10T15:32:11;5.30;99.90
33207;DHT22;19565;46.602;11.534;2022-12-10T15:34:44;5.20;99.90
33207;DHT22;19565;46.602;11.534;2022-12-10T15:37:17;5.20;99.90
33207;DHT22;19565;46.602;11.534;2022-12-10T15:39:49;5.20;99.90
33207;DHT22;19565;46.602;11.534;2022-12-10T15:42:31;5.20;99.90
33207;DHT22;19565;46.602;11.534;2022-12-10T15:45:16;5.20;99.90
33207;DHT22;19565;46.602;11.534;2022-12-10T15:47:45;5.20;99.90
33207;DHT22;19565;46.602;11.534;2022-12-10T15:50:14;5.20;99.90
33207;DHT22;19565;46.602;11.534;2022-12-10T15:52:42;5.20;99.90
33207;DHT22;19565;46.602;11.534;2022-12-10T15:55:12;5.20;99.90
33207;DHT22;19565;46.602;11.534;2022-12-10T15:57:41;5.20;99.90
33207;DHT22;19565;46.602;11.534;2022-12-10T16:00:18;5.20;99.90
33207;DHT22;19565;46.602;11.534;2022-12-10T16:02:49;5.30;99.90
33207;DHT22;19565;46.602;11.534;2022-12-10T16:05:20;5.30;99.90